Time;durP1;ratioP1;P1;durP2;ratioP2;P2;SDS_P1;SDS_P2;PMS_P1;PMS_P2;Temp;Humidity;BMP_temperature;BMP_pressure;BME280_temperature;BME280_humidity;BME280_pressure;Samples;Min_cycle;Max_cycle;Signal;HPM_P1;HPM_P2
2021/05/07 00:00:57;;;;;;;2.38;1.70;;;;;;;25.36;34.41;94736.09;4989973;28;20113;-73
2021/05/07 00:03:23;;;;;;;3.15;1.75;;;;;;;25.35;34.67;94731.16;4989963;28;20042;-72
2021/05/07 00:05:58;;;;;;;2.83;1.60;;;;;;;25.15;34.32;94704.50;4987391;28;20034;-73
2021/05/07 00:08:28;;;;;;;3.00;1.77;;;;;;;25.26;34.28;94720.69;4980242;28;20108;-73
2021/05/07 00:10:54;;;;;;;2.97;1.70;;;;;;;25.34;33.91;94724.22;4979015;28;20449;-72
2021/05/07 00:13:20;;;;;;;2.53;1.50;;;;;;;25.34;34.01;94726.97;4989534;28;20053;-73
2021/05/07 00:15:46;;;;;;;2.15;1.52;;;;;;;25.35;34.87;94722.94;4988759;28;20088;-73
2021/05/07 00:18:11;;;;;;;2.55;1.48;;;;;;;25.33;34.27;94730.97;4988791;28;20035;-72
2021/05/07 00:20:36;;;;;;;2.60;1.50;;;;;;;25.32;34.21;94735.69;4989308;28;20033;-73
2021/05/07 00:23:02;;;;;;;3.35;2.00;;;;;;;25.31;34.78;94723.28;4988746;28;20037;-73
2021/05/07 00:25:28;;;;;;;2.97;1.70;;;;;;;25.27;34.76;94721.41;4988743;28;20026;-73
2021/05/07 00:28:11;;;;;;;2.30;1.60;;;;;;;25.31;34.73;94711.63;4988828;28;20445;-73
2021/05/07 00:30:37;;;;;;;3.08;1.60;;;;;;;25.35;34.25;94722.94;4987944;28;20108;-73
2021/05/07 00:33:04;;;;;;;2.38;1.48;;;;;;;25.30;34.46;94710.16;4989675;28;20034;-73
2021/05/07 00:35:29;;;;;;;2.35;1.45;;;;;;;25.31;34.98;94717.09;4989682;28;20128;-72
2021/05/07 00:37:55;;;;;;;1.67;1.20;;;;;;;25.28;34.92;94718.16;4989787;28;20026;-73
2021/05/07 00:40:21;;;;;;;4.28;1.58;;;;;;;25.29;35.10;94727.84;4988490;28;20425;-73
2021/05/07 00:42:47;;;;;;;2.50;1.63;;;;;;;25.30;35.25;94710.16;4988662;28;20120;-73
2021/05/07 00:45:13;;;;;;;3.60;1.65;;;;;;;25.31;34.47;94716.38;4989453;28;20041;-73
2021/05/07 00:47:43;;;;;;;2.00;1.55;;;;;;;25.30;35.20;94709.41;4987660;28;20038;-73
2021/05/07 00:50:09;;;;;;;;;;;;;;;25.25;34.59;94713.75;4988144;28;20494;-73
2021/05/07 00:52:37;;;;;;;2.63;1.67;;;;;;;25.26;34.54;94712.50;4984823;28;19949;-72
2021/05/07 00:55:06;;;;;;;2.63;1.88;;;;;;;25.25;35.19;94719.22;4953066;28;20042;-73
2021/05/07 00:57:32;;;;;;;3.88;1.83;;;;;;;25.23;34.88;94721.00;4969808;28;20046;-73
2021/05/07 00:59:58;;;;;;;2.67;1.75;;;;;;;25.23;35.18;94721.75;4952616;28;20039;-73
2021/05/07 01:02:24;;;;;;;3.08;1.58;;;;;;;25.24;35.26;94725.94;4969962;28;20061;-73
2021/05/07 01:04:49;;;;;;;2.83;1.75;;;;;;;25.23;35.18;94726.44;4968399;28;20121;-73
2021/05/07 01:07:15;;;;;;;2.15;1.52;;;;;;;24.95;35.43;94672.34;4969683;28;20026;-73
2021/05/07 01:09:41;;;;;;;2.05;1.50;;;;;;;25.22;34.93;94709.31;4968024;28;20027;-73
2021/05/07 01:12:07;;;;;;;2.88;1.60;;;;;;;25.18;35.28;94714.38;4968129;28;20176;-71
2021/05/07 01:14:32;;;;;;;1.98;1.42;;;;;;;25.03;35.19;94697.78;4968209;28;20080;-71
2021/05/07 01:16:58;;;;;;;2.45;1.42;;;;;;;25.22;35.55;94709.31;4969573;28;20041;-73
2021/05/07 01:19:23;;;;;;;1.85;1.58;;;;;;;25.18;35.44;94716.38;4969432;28;20035;-70
2021/05/07 01:21:49;;;;;;;4.28;1.52;;;;;;;25.08;34.89;94705.16;4969270;28;20037;-73
2021/05/07 01:24:14;;;;;;;2.38;1.63;;;;;;;24.91;35.01;94674.66;4967747;28;20027;-73
2021/05/07 01:26:43;;;;;;;3.45;1.98;;;;;;;25.10;35.58;94719.03;4982577;28;20038;-73
2021/05/07 01:29:11;;;;;;;3.58;1.85;;;;;;;25.15;35.64;94715.44;4988587;28;20038;-73
2021/05/07 01:31:37;;;;;;;2.40;1.50;;;;;;;25.14;34.93;94711.25;4988871;28;20060;-73
2021/05/07 01:34:03;;;;;;;3.70;2.05;;;;;;;25.13;35.11;94712.50;4987371;28;20038;-73
2021/05/07 01:36:29;;;;;;;2.58;1.98;;;;;;;25.12;35.68;94708.28;4988435;28;20494;-72
2021/05/07 01:38:54;;;;;;;2.97;1.70;;;;;;;25.15;35.70;94720.91;4988479;28;20093;-73
2021/05/07 01:41:19;;;;;;;3.30;1.60;;;;;;;25.12;34.91;94711.00;4988432;28;20033;-73
2021/05/07 01:43:47;;;;;;;2.08;1.50;;;;;;;25.12;35.54;94710.28;4988064;28;20030;-72
2021/05/07 01:46:12;;;;;;;3.20;1.60;;;;;;;25.11;34.97;94709.56;4987986;28;20494;-72
2021/05/07 01:48:38;;;;;;;3.97;1.73;;;;;;;25.12;35.57;94711.00;4988426;28;20018;-73
2021/05/07 01:51:05;;;;;;;3.25;1.98;;;;;;;24.96;35.61;94681.28;4987985;28;20022;-72
2021/05/07 01:53:30;;;;;;;2.75;1.88;;;;;;;24.99;35.75;94681.00;4987065;28;20030;-72
2021/05/07 01:55:56;;;;;;;2.60;1.40;;;;;;;24.94;35.50;94678.34;4988325;28;20564;-71
2021/05/07 01:58:21;;;;;;;2.88;1.85;;;;;;;25.11;35.34;94698.63;4988146;28;20546;-72
2021/05/07 02:00:47;;;;;;;2.28;1.70;;;;;;;25.13;35.56;94695.38;4988078;28;20077;-71
2021/05/07 02:03:12;;;;;;;2.63;1.70;;;;;;;25.10;35.60;94697.16;4987758;28;20423;-71
2021/05/07 02:05:38;;;;;;;4.32;1.80;;;;;;;25.11;35.69;94698.63;4987796;28;20776;-71
2021/05/07 02:08:04;;;;;;;2.90;1.77;;;;;;;25.08;35.24;94705.16;4988192;28;20062;-71
2021/05/07 02:10:30;;;;;;;3.72;1.48;;;;;;;25.09;35.80;94703.88;4987826;28;20034;-71
2021/05/07 02:12:55;;;;;;;2.15;1.50;;;;;;;25.07;35.18;94692.03;4986654;28;20109;-73
2021/05/07 02:15:22;;;;;;;2.22;1.70;;;;;;;25.08;35.82;94688.75;4986592;28;20065;-71
2021/05/07 02:17:47;;;;;;;2.35;1.52;;;;;;;24.86;35.40;94656.38;4987889;28;20019;-71
2021/05/07 02:20:14;;;;;;;3.53;1.85;;;;;;;25.08;35.63;94688.00;4986748;28;20061;-73
2021/05/07 02:22:40;;;;;;;2.00;1.65;;;;;;;25.07;35.40;94687.28;4987804;28;20038;-70
2021/05/07 02:25:06;;;;;;;2.53;1.50;;;;;;;25.04;35.37;94687.59;4987767;28;20030;-71
2021/05/07 02:27:31;;;;;;;2.92;1.80;;;;;;;24.91;35.74;94669.19;4987895;28;20045;-71
2021/05/07 02:29:57;;;;;;;2.30;1.35;;;;;;;25.03;35.70;94686.84;4986437;28;20529;-72
2021/05/07 02:32:22;;;;;;;2.45;1.67;;;;;;;24.99;35.77;94686.47;4980995;28;20042;-72
2021/05/07 02:34:48;;;;;;;2.13;1.67;;;;;;;25.01;36.07;94678.47;4968028;28;20033;-72
2021/05/07 02:37:13;;;;;;;2.63;1.60;;;;;;;25.01;36.17;94689.38;4968101;28;20026;-71
2021/05/07 02:39:38;;;;;;;2.30;1.38;;;;;;;25.01;35.75;94683.94;4968115;28;20041;-71
2021/05/07 02:42:04;;;;;;;1.73;1.38;;;;;;;24.99;35.88;94691.94;4986437;28;20038;-71
2021/05/07 02:44:30;;;;;;;2.78;1.52;;;;;;;25.00;35.96;94693.38;4987842;28;20698;-72
2021/05/07 02:47:03;;;;;;;2.72;1.80;;;;;;;25.00;36.16;94696.09;4986504;28;20046;-71
2021/05/07 02:49:28;;;;;;;2.50;1.60;;;;;;;25.01;36.20;94699.59;4979781;28;20038;-71
2021/05/07 02:51:54;;;;;;;2.72;1.70;;;;;;;25.00;36.03;94698.13;4968486;28;20031;-72
2021/05/07 02:54:19;;;;;;;1.85;1.27;;;;;;;24.79;35.85;94661.75;4968146;28;20034;-72
2021/05/07 02:56:44;;;;;;;2.47;1.60;;;;;;;25.02;35.34;94696.34;4967217;28;20034;-72
2021/05/07 02:59:14;;;;;;;2.60;1.50;;;;;;;25.01;35.58;94700.31;4968169;28;20035;-72
2021/05/07 03:01:39;;;;;;;2.38;1.65;;;;;;;25.01;35.95;94705.78;4966487;28;20034;-71
2021/05/07 03:04:05;;;;;;;2.30;1.58;;;;;;;24.99;35.38;94702.84;4971559;28;20051;-71
2021/05/07 03:06:30;;;;;;;2.50;1.38;;;;;;;25.04;36.03;94699.25;4982139;28;20026;-72
2021/05/07 03:08:56;;;;;;;3.70;2.15;;;;;;;24.99;35.60;94708.31;4991321;28;20045;-72
2021/05/07 03:11:21;;;;;;;3.47;1.70;;;;;;;25.00;35.80;94693.38;4991348;28;20033;-72
2021/05/07 03:13:47;;;;;;;2.65;1.77;;;;;;;25.01;35.76;94700.31;4991209;28;20038;-71
2021/05/07 03:16:12;;;;;;;2.17;1.48;;;;;;;25.01;36.24;94700.31;4991234;28;20613;-72
2021/05/07 03:18:38;;;;;;;2.33;1.52;;;;;;;24.95;35.99;94707.88;4991134;28;20414;-72
2021/05/07 03:21:03;;;;;;;2.55;1.55;;;;;;;24.98;35.56;94706.09;4989734;28;20483;-72
2021/05/07 03:23:29;;;;;;;3.25;1.60;;;;;;;24.98;35.71;94711.53;4990977;28;20022;-72
2021/05/07 03:25:54;;;;;;;3.30;1.83;;;;;;;24.97;35.57;94716.25;4990903;28;20103;-72
2021/05/07 03:28:20;;;;;;;1.73;1.38;;;;;;;24.97;35.74;94721.72;4989621;28;20030;-72
2021/05/07 03:30:46;;;;;;;2.97;1.50;;;;;;;24.96;35.65;94720.28;4990675;28;20022;-71
2021/05/07 03:33:12;;;;;;;2.45;1.85;;;;;;;24.99;35.54;94718.50;4989591;28;20816;-72
2021/05/07 03:35:37;;;;;;;2.45;1.42;;;;;;;24.97;36.32;94721.00;4990328;28;20034;-72
2021/05/07 03:38:03;;;;;;;2.10;1.70;;;;;;;24.98;36.15;94717.72;4973373;28;20030;-72
2021/05/07 03:40:29;;;;;;;3.10;1.55;;;;;;;24.97;35.79;94726.47;4990621;28;20033;-71
2021/05/07 03:42:54;;;;;;;2.22;1.48;;;;;;;24.97;35.74;94727.19;4989340;28;20410;-72
2021/05/07 03:45:20;;;;;;;3.17;1.52;;;;;;;24.97;36.16;94732.66;4990827;28;20453;-72
2021/05/07 03:47:45;;;;;;;2.65;1.77;;;;;;;24.98;36.06;94744.34;4990472;28;20097;-72
2021/05/07 03:50:11;;;;;;;2.97;1.88;;;;;;;24.95;35.73;94746.09;4990396;28;20026;-72
2021/05/07 03:52:37;;;;;;;2.70;1.30;;;;;;;24.94;35.84;94738.44;4990128;28;20506;-71
2021/05/07 03:55:04;;;;;;;2.90;1.52;;;;;;;24.97;35.81;94743.56;4988896;28;20038;-72
2021/05/07 03:57:30;;;;;;;2.83;1.80;;;;;;;24.95;35.67;94746.09;4990519;28;20113;-73
2021/05/07 03:59:56;;;;;;;4.25;2.17;;;;;;;24.68;34.80;94737.69;4990354;28;20037;-74
2021/05/07 04:02:21;;;;;;;2.83;2.15;;;;;;;24.37;35.53;94725.56;4978481;28;20027;-79
2021/05/07 04:04:47;;;;;;;4.07;2.25;;;;;;;24.19;35.78;94742.00;4977448;28;20054;-78
2021/05/07 04:07:14;;;;;;;4.35;2.20;;;;;;;24.05;35.60;94721.41;4974603;28;20470;-77
2021/05/07 04:09:44;;;;;;;4.05;2.40;;;;;;;24.11;35.63;94743.88;4988050;28;20706;-79
2021/05/07 04:12:14;;;;;;;4.85;3.00;;;;;;;24.10;35.96;94745.13;4973006;28;20046;-80
2021/05/07 04:14:39;;;;;;;4.30;2.92;;;;;;;23.94;36.22;94754.28;4984438;28;20712;-80
2021/05/07 04:17:05;;;;;;;4.63;2.80;;;;;;;23.96;36.29;94756.50;4981291;28;20034;-78
2021/05/07 04:19:30;;;;;;;4.40;2.70;;;;;;;23.64;36.22;94730.47;4984039;28;20470;-78
2021/05/07 04:21:56;;;;;;;5.75;2.92;;;;;;;23.84;36.38;94762.63;4983160;28;20054;-78
2021/05/07 04:24:22;;;;;;;4.50;3.10;;;;;;;23.63;36.58;94745.31;4982921;28;20026;-81
2021/05/07 04:26:47;;;;;;;5.28;2.67;;;;;;;23.55;36.54;94725.34;4979803;28;20034;-73
2021/05/07 04:29:13;;;;;;;5.70;3.10;;;;;;;23.73;37.00;94765.53;4994259;28;20033;-72
2021/05/07 04:31:38;;;;;;;4.60;2.85;;;;;;;23.69;36.70;94765.09;4985675;28;20025;-72
2021/05/07 04:34:06;;;;;;;4.97;2.90;;;;;;;23.61;36.63;94769.63;4996557;28;20490;-72
2021/05/07 04:36:31;;;;;;;7.13;3.35;;;;;;;23.64;36.59;94772.09;4986137;28;20117;-72
2021/05/07 04:38:57;;;;;;;6.45;3.38;;;;;;;23.70;36.96;94761.84;4989672;28;20085;-72
2021/05/07 04:41:23;;;;;;;6.57;3.20;;;;;;;23.71;37.07;94778.94;4980663;28;20173;-82
2021/05/07 04:43:48;;;;;;;6.82;2.95;;;;;;;23.57;37.28;94758.28;4974203;28;20058;-75
2021/05/07 04:46:14;;;;;;;10.68;3.30;;;;;;;23.71;37.99;94778.94;4973046;28;20026;-75
2021/05/07 04:48:39;;;;;;;6.43;3.00;;;;;;;23.70;37.55;94777.47;4952854;28;20046;-76
2021/05/07 04:51:05;;;;;;;5.22;3.10;;;;;;;23.80;38.12;94781.31;4990628;28;20422;-75
2021/05/07 04:53:30;;;;;;;6.35;3.03;;;;;;;23.85;37.81;94783.22;5002030;28;20018;-76
2021/05/07 04:55:56;;;;;;;8.50;3.50;;;;;;;23.63;38.30;94746.06;4991132;28;20026;-76
2021/05/07 04:58:21;;;;;;;7.32;2.95;;;;;;;24.13;37.75;94782.28;4999765;28;20556;-78
2021/05/07 05:00:46;;;;;;;7.07;3.35;;;;;;;24.07;38.57;94767.97;4987474;28;20058;-76
2021/05/07 05:03:12;;;;;;;6.95;3.35;;;;;;;24.01;37.46;94774.78;4974859;28;20054;-77
2021/05/07 05:05:37;;;;;;;5.82;3.50;;;;;;;24.11;38.06;94790.25;4973311;28;20100;-76
2021/05/07 05:08:04;;;;;;;4.95;3.30;;;;;;;24.04;37.34;94779.94;4981105;28;20494;-76
2021/05/07 05:10:29;;;;;;;5.40;3.63;;;;;;;24.14;36.21;94772.84;4972183;28;20030;-77
2021/05/07 05:12:54;;;;;;;7.22;3.50;;;;;;;24.15;36.42;94779.75;4985910;28;20520;-74
2021/05/07 05:15:20;;;;;;;5.75;3.40;;;;;;;24.07;35.81;94778.91;4992351;28;20454;-76
2021/05/07 05:17:46;;;;;;;6.35;3.25;;;;;;;23.85;36.17;94761.38;4954910;28;20124;-75
2021/05/07 05:20:11;;;;;;;9.57;4.18;;;;;;;24.16;36.03;94785.97;4995182;28;20030;-73
2021/05/07 05:22:37;;;;;;;8.15;3.85;;;;;;;24.21;36.10;94788.59;4975884;28;20499;-71
2021/05/07 05:25:06;;;;;;;7.40;3.65;;;;;;;24.19;36.05;94790.38;4972773;28;20081;-72
2021/05/07 05:27:33;;;;;;;7.82;3.53;;;;;;;24.13;36.20;94782.28;4974706;28;20109;-72
2021/05/07 05:29:58;;;;;;;8.48;3.95;;;;;;;24.16;35.88;94786.69;4931749;28;20536;-71
2021/05/07 05:32:24;;;;;;;7.10;3.58;;;;;;;24.25;35.52;94788.31;4989786;28;20022;-71
2021/05/07 05:34:49;;;;;;;5.63;4.00;;;;;;;24.29;35.79;94784.00;4992101;28;20029;-71
2021/05/07 05:37:15;;;;;;;5.07;3.60;;;;;;;24.28;35.56;94782.53;4981773;28;20109;-71
2021/05/07 05:39:40;;;;;;;8.48;3.58;;;;;;;24.13;35.57;94760.44;4991891;28;20510;-75
2021/05/07 05:42:06;;;;;;;7.90;2.83;;;;;;;24.44;34.91;94784.28;4981502;28;20026;-76
2021/05/07 05:44:31;;;;;;;5.38;3.00;;;;;;;24.50;34.49;94793.13;4979670;28;20034;-71
2021/05/07 05:46:56;;;;;;;6.45;3.08;;;;;;;24.56;34.47;94785.59;4981363;28;20031;-71
2021/05/07 05:49:22;;;;;;;7.50;3.20;;;;;;;24.56;34.48;94786.31;4989509;28;20030;-71
2021/05/07 05:51:47;;;;;;;5.70;2.78;;;;;;;24.56;34.89;94785.59;4978748;28;20022;-71
2021/05/07 05:54:13;;;;;;;5.78;2.78;;;;;;;24.56;34.84;94786.31;4992352;28;20033;-71
2021/05/07 05:56:39;;;;;;;6.53;2.92;;;;;;;24.70;34.57;94790.53;4992266;28;20409;-71
2021/05/07 05:59:05;;;;;;;6.00;3.28;;;;;;;24.76;34.58;94793.16;4989557;28;20045;-70
2021/05/07 06:01:30;;;;;;;8.57;4.00;;;;;;;24.87;34.84;94794.44;4982175;28;20506;-72
2021/05/07 06:03:56;;;;;;;8.88;3.42;;;;;;;25.04;33.90;94794.91;4991686;28;20054;-73
2021/05/07 06:06:21;;;;;;;9.68;3.72;;;;;;;24.99;34.20;94784.81;4981844;28;20514;-68
2021/05/07 06:08:47;;;;;;;5.45;3.58;;;;;;;24.95;34.49;94789.09;4966619;28;20446;-73
2021/05/07 06:11:12;;;;;;;6.30;3.20;;;;;;;24.97;34.10;94798.22;4985522;28;20037;-72
2021/05/07 06:13:37;;;;;;;6.43;3.35;;;;;;;24.96;34.04;94802.22;4994187;28;20029;-73
2021/05/07 06:16:04;;;;;;;8.73;3.38;;;;;;;24.95;34.25;94806.22;4988587;28;20036;-73
2021/05/07 06:18:29;;;;;;;8.77;3.70;;;;;;;24.66;34.50;94794.81;4990818;28;20030;-72
2021/05/07 06:20:54;;;;;;;5.57;3.17;;;;;;;24.64;34.03;94786.44;4986351;28;20042;-72
2021/05/07 06:23:22;;;;;;;6.40;3.05;;;;;;;24.54;33.85;94782.63;4983378;28;20084;-72
2021/05/07 06:25:47;;;;;;;4.78;2.97;;;;;;;24.55;34.36;94784.09;4986841;28;20026;-71
2021/05/07 06:28:13;;;;;;;5.68;3.25;;;;;;;24.51;34.57;94778.19;4994975;28;20431;-73
2021/05/07 06:30:38;;;;;;;7.82;3.35;;;;;;;24.45;34.51;94780.28;4995511;28;20107;-73
2021/05/07 06:33:04;;;;;;;4.38;2.70;;;;;;;24.40;34.57;94783.84;4993790;28;20057;-71
2021/05/07 06:35:29;;;;;;;6.45;3.22;;;;;;;24.35;34.32;94776.50;4998710;28;20038;-71
2021/05/07 06:37:57;;;;;;;6.03;2.97;;;;;;;24.46;34.49;94781.78;4991470;28;20417;-71
2021/05/07 06:40:22;;;;;;;5.82;3.47;;;;;;;24.43;34.77;94777.34;5003931;28;22168;-73
2021/05/07 06:42:48;;;;;;;7.70;3.13;;;;;;;24.67;34.19;94772.47;4984283;28;20030;-75
2021/05/07 06:45:14;;;;;;;7.22;3.42;;;;;;;24.69;34.25;94766.47;4982658;28;20118;-72
2021/05/07 06:47:40;;;;;;;7.32;2.78;;;;;;;24.65;34.47;94763.31;4979717;28;20500;-73
2021/05/07 06:50:06;;;;;;;8.63;3.40;;;;;;;24.61;34.06;94765.63;4984001;28;20029;-72
2021/05/07 06:52:32;;;;;;;7.55;3.40;;;;;;;24.75;34.06;94754.19;4943375;28;20121;-73
2021/05/07 06:54:58;;;;;;;6.68;3.33;;;;;;;24.75;33.93;94764.38;4996734;28;20027;-72
2021/05/07 06:57:23;;;;;;;5.70;2.78;;;;;;;24.78;33.36;94763.34;4986497;28;20505;-70
2021/05/07 06:59:49;;;;;;;5.30;2.25;;;;;;;24.62;33.47;94743.25;4994783;28;20034;-70
2021/05/07 07:02:15;;;;;;;9.63;2.85;;;;;;;24.79;33.63;94759.34;4989803;28;20038;-73
2021/05/07 07:04:41;;;;;;;7.10;2.55;;;;;;;24.82;33.77;94752.84;4994870;28;20072;-73
2021/05/07 07:07:07;;;;;;;6.22;2.40;;;;;;;24.82;33.01;94744.66;4990153;28;20042;-73
2021/05/07 07:09:32;;;;;;;7.25;2.17;;;;;;;24.96;32.79;94752.31;4990403;28;20114;-73
2021/05/07 07:11:58;;;;;;;5.10;2.10;;;;;;;25.01;32.76;94749.50;4998483;28;20042;-72
2021/05/07 07:14:23;;;;;;;6.43;2.38;;;;;;;24.99;33.20;94738.38;4980702;28;20062;-73
2021/05/07 07:16:48;;;;;;;6.38;2.60;;;;;;;25.06;33.27;94751.38;4978733;28;20027;-74
2021/05/07 07:19:14;;;;;;;6.45;2.40;;;;;;;24.99;33.59;94752.03;4974094;28;20034;-73
2021/05/07 07:21:39;;;;;;;4.68;2.58;;;;;;;25.12;32.74;94737.63;4974736;28;20027;-73
2021/05/07 07:24:05;;;;;;;7.10;3.20;;;;;;;25.10;33.50;94734.69;4973138;28;20030;-74
2021/05/07 07:26:31;;;;;;;9.98;3.88;;;;;;;25.19;33.03;94737.72;4976031;28;20042;-74
2021/05/07 07:28:56;;;;;;;10.80;2.80;;;;;;;25.32;33.53;94724.03;4987622;28;20026;-73
2021/05/07 07:31:31;;;;;;;6.32;2.35;;;;;;;25.25;32.87;94730.13;4982960;28;20396;-71
2021/05/07 07:33:58;;;;;;;6.50;2.65;;;;;;;24.98;33.47;94723.19;4987562;28;20030;-71
2021/05/07 07:36:24;;;;;;;4.13;2.33;;;;;;;25.28;33.76;94723.63;4982693;28;20031;-74
2021/05/07 07:38:49;;;;;;;6.00;3.05;;;;;;;25.29;33.85;94725.09;4996571;28;20032;-73
2021/05/07 07:41:15;;;;;;;5.55;2.60;;;;;;;25.43;33.22;94712.88;4988996;28;20035;-74
2021/05/07 07:43:40;;;;;;;4.45;2.40;;;;;;;25.52;32.93;94715.16;4978115;28;20061;-74
2021/05/07 07:46:06;;;;;;;5.43;2.40;;;;;;;25.56;33.24;94704.59;4977410;28;20034;-72
2021/05/07 07:48:31;;;;;;;5.93;2.30;;;;;;;25.68;33.52;94694.91;4994780;28;20039;-72
2021/05/07 07:50:57;;;;;;;7.45;2.60;;;;;;;25.63;33.08;94703.97;4991861;28;20045;-73
2021/05/07 07:53:22;;;;;;;5.80;2.40;;;;;;;25.59;33.17;94676.19;4985601;28;20046;-71
2021/05/07 07:55:48;;;;;;;4.32;2.10;;;;;;;25.70;33.25;94681.47;4990259;28;20026;-70
2021/05/07 07:58:14;;;;;;;5.75;2.22;;;;;;;25.81;32.66;94693.63;4994455;28;20410;-70
2021/05/07 08:00:39;;;;;;;6.40;2.47;;;;;;;25.84;33.34;94695.28;4986920;28;20042;-69
2021/05/07 08:03:05;;;;;;;5.05;2.30;;;;;;;25.85;32.35;94683.06;4978314;28;20132;-71
2021/05/07 08:05:30;;;;;;;5.80;2.50;;;;;;;26.07;32.35;94687.25;4986863;28;20026;-71
2021/05/07 08:07:59;;;;;;;5.68;2.65;;;;;;;26.12;33.08;94689.88;4980368;28;20034;-70
2021/05/07 08:10:24;;;;;;;6.43;2.67;;;;;;;26.03;32.90;94687.59;5000945;28;20144;-70
2021/05/07 08:12:50;;;;;;;7.80;2.72;;;;;;;26.05;33.02;94674.13;4996210;28;20478;-72
2021/05/07 08:15:16;;;;;;;4.07;2.40;;;;;;;26.11;32.48;94677.44;5001891;28;20040;-71
2021/05/07 08:17:41;;;;;;;6.30;2.60;;;;;;;26.39;32.01;94674.78;4993746;28;20030;-68
2021/05/07 08:20:07;;;;;;;4.80;2.33;;;;;;;26.34;32.44;94661.97;4998280;28;20073;-72
2021/05/07 08:22:33;;;;;;;9.38;3.47;;;;;;;26.43;32.36;94680.66;4979922;28;20132;-69
2021/05/07 08:24:58;;;;;;;5.30;2.30;;;;;;;26.52;32.07;94682.91;4995723;28;20034;-71
2021/05/07 08:27:24;;;;;;;4.47;2.40;;;;;;;26.59;31.36;94676.72;4986747;28;20037;-73
2021/05/07 08:29:49;;;;;;;13.30;3.28;;;;;;;26.64;31.31;94667.66;4997195;28;20037;-71
2021/05/07 08:32:15;;;;;;;9.35;2.78;;;;;;;26.66;30.98;94670.56;4985758;28;20040;-71
2021/05/07 08:34:43;;;;;;;5.75;2.38;;;;;;;26.18;31.39;94638.47;4996427;28;20030;-71
2021/05/07 08:37:09;;;;;;;6.50;2.22;;;;;;;26.21;32.03;94647.59;4984858;28;20030;-71
2021/05/07 08:39:35;;;;;;;6.57;2.80;;;;;;;26.42;31.51;94658.00;4995678;28;20132;-72
2021/05/07 08:42:00;;;;;;;7.20;2.50;;;;;;;26.41;31.56;94644.84;4986409;28;20053;-71
2021/05/07 08:44:25;;;;;;;5.97;3.05;;;;;;;26.61;31.26;94657.78;4977509;28;21569;-70
2021/05/07 08:46:51;;;;;;;6.63;2.55;;;;;;;26.63;31.58;94666.19;4980686;28;20034;-71
2021/05/07 08:49:18;;;;;;;3.55;2.30;;;;;;;26.53;31.05;94667.94;4959584;28;20042;-70
2021/05/07 08:51:43;;;;;;;7.55;2.80;;;;;;;26.70;30.72;94676.47;4977572;28;20050;-71
2021/05/07 08:54:09;;;;;;;8.50;2.58;;;;;;;26.77;30.91;94660.78;4973544;28;20704;-71
2021/05/07 08:56:35;;;;;;;7.90;2.15;;;;;;;26.80;31.69;94645.25;4978729;28;20035;-72
2021/05/07 08:59:01;;;;;;;6.18;2.50;;;;;;;26.74;31.63;94643.94;4970751;28;20467;-71
2021/05/07 09:01:46;;;;;;;6.70;2.40;;;;;;;26.71;31.63;94634.06;4979303;28;20322;-70
2021/05/07 09:04:13;;;;;;;6.25;2.55;;;;;;;26.64;31.48;94624.53;4993168;28;20045;-72
2021/05/07 09:06:40;;;;;;;8.35;2.83;;;;;;;26.71;31.03;94628.59;4991646;28;20057;-72
2021/05/07 09:09:26;;;;;;;6.43;2.35;;;;;;;26.82;31.20;94624.28;5014882;28;20033;-71
2021/05/07 09:11:51;;;;;;;5.40;2.15;;;;;;;26.85;31.07;94623.19;4978908;28;20456;-71
2021/05/07 09:14:17;;;;;;;8.80;2.67;;;;;;;27.11;30.68;94628.44;4986294;28;20026;-71
2021/05/07 09:17:08;;;;;;;5.10;2.33;;;;;;;27.22;30.13;94622.63;4984046;28;20018;-72
2021/05/07 09:19:35;;;;;;;5.45;2.35;;;;;;;27.17;30.68;94620.78;4989265;28;20096;-71
2021/05/07 09:22:00;;;;;;;5.55;2.35;;;;;;;27.37;30.67;94622.69;4984415;28;20034;-71
2021/05/07 09:24:35;;;;;;;7.05;2.20;;;;;;;27.45;30.13;94612.44;4985879;28;20027;-69
2021/05/07 09:27:01;;;;;;;7.20;2.33;;;;;;;27.34;30.55;94618.28;4986727;28;20517;-71
2021/05/07 09:29:30;;;;;;;7.50;2.28;;;;;;;27.19;29.79;94579.84;4987994;28;20038;-71
2021/05/07 09:31:56;;;;;;;5.32;2.30;;;;;;;27.39;29.71;94603.66;4987519;28;20030;-71
2021/05/07 09:34:22;;;;;;;5.43;2.50;;;;;;;27.57;29.67;94597.88;4989058;28;20034;-71
2021/05/07 09:36:48;;;;;;;4.50;2.00;;;;;;;27.70;29.58;94594.22;4993897;28;20023;-71
2021/05/07 09:39:20;;;;;;;5.40;2.00;;;;;;;27.64;29.47;94586.19;4996875;28;20029;-71
2021/05/07 09:41:52;;;;;;;5.25;2.08;;;;;;;27.62;28.92;94598.97;4981561;28;20036;-71
2021/05/07 09:44:22;;;;;;;3.75;1.85;;;;;;;27.75;28.56;94597.50;4976370;28;20026;-71
2021/05/07 09:46:48;;;;;;;5.45;2.17;;;;;;;27.64;28.47;94585.44;4987657;28;20026;-71
2021/05/07 09:49:29;;;;;;;4.45;1.83;;;;;;;27.67;28.14;94567.88;4986223;28;20056;-72
2021/05/07 09:51:55;;;;;;;4.75;1.70;;;;;;;27.84;27.50;94533.84;4999898;28;20038;-71
2021/05/07 09:54:20;;;;;;;4.65;1.77;;;;;;;27.98;27.88;94546.09;5009853;28;20490;-72
2021/05/07 09:56:46;;;;;;;4.00;1.58;;;;;;;28.24;28.17;94548.47;4997940;28;20009;-73
2021/05/07 09:59:12;;;;;;;4.97;1.95;;;;;;;28.10;27.33;94549.22;4995813;28;20015;-70
2021/05/07 10:01:38;;;;;;;3.95;1.70;;;;;;;28.15;27.74;94551.78;4988857;28;20388;-72
2021/05/07 10:04:03;;;;;;;2.95;1.40;;;;;;;28.16;27.78;94553.25;4998514;28;20064;-72
2021/05/07 10:06:31;;;;;;;5.90;1.70;;;;;;;28.18;28.10;94547.94;4985718;28;20030;-71
2021/05/07 10:08:56;;;;;;;2.42;1.40;;;;;;;28.24;27.66;94548.47;4987707;28;20144;-71
2021/05/07 10:11:22;;;;;;;4.28;1.15;;;;;;;28.12;27.40;94552.88;4983920;28;20043;-71
2021/05/07 10:13:51;;;;;;;3.05;1.50;;;;;;;28.22;27.71;94551.03;4991293;28;20482;-72
2021/05/07 10:16:27;;;;;;;2.95;1.60;;;;;;;28.17;27.55;94543.72;4968247;28;20030;-72
2021/05/07 10:18:59;;;;;;;5.80;1.70;;;;;;;27.98;28.00;94504.94;4995679;28;20021;-72
2021/05/07 10:21:36;;;;;;;4.93;1.58;;;;;;;28.39;27.73;94548.44;4994203;28;20410;-73
2021/05/07 10:24:02;;;;;;;4.80;1.67;;;;;;;28.47;27.59;94560.13;4997643;28;20113;-72
2021/05/07 10:26:34;;;;;;;4.75;1.48;;;;;;;28.50;27.82;94553.53;4995662;28;20764;-72
2021/05/07 10:29:00;;;;;;;2.95;1.30;;;;;;;28.53;27.33;94552.41;4995670;28;20083;-72
2021/05/07 10:31:25;;;;;;;4.38;1.50;;;;;;;28.63;27.41;94545.06;4985065;28;20035;-72
2021/05/07 10:33:58;;;;;;;4.55;1.58;;;;;;;28.29;27.72;94423.94;4989177;28;20030;-72
2021/05/07 10:36:35;;;;;;;2.40;1.33;;;;;;;28.72;26.56;94536.28;5013107;28;20034;-72
2021/05/07 10:39:01;;;;;;;3.55;1.40;;;;;;;28.77;26.40;94534.03;4994981;28;20678;-72
2021/05/07 10:41:33;;;;;;;3.15;1.20;;;;;;;28.73;25.41;94528.19;4980301;28;20033;-71
2021/05/07 10:43:58;;;;;;;2.90;1.30;;;;;;;28.74;25.86;94529.66;4986742;28;20516;-72
2021/05/07 10:46:25;;;;;;;2.20;1.00;;;;;;;28.79;25.62;94520.47;4988020;28;20030;-72
2021/05/07 10:48:54;;;;;;;2.58;1.00;;;;;;;28.74;25.80;94521.41;4988841;28;20032;-71
2021/05/07 10:51:19;;;;;;;2.95;0.90;;;;;;;28.80;25.67;94519.19;4983298;28;20027;-71
2021/05/07 10:53:45;;;;;;;2.97;0.90;;;;;;;28.88;25.92;94517.13;4983911;28;20053;-69
2021/05/07 10:56:24;;;;;;;3.70;0.90;;;;;;;28.82;25.77;94508.34;4982302;28;20030;-70
2021/05/07 10:58:57;;;;;;;2.03;0.80;;;;;;;28.90;25.90;94506.28;4987010;28;20079;-71
2021/05/07 11:01:24;;;;;;;2.05;1.10;;;;;;;28.89;26.15;94495.84;4986229;28;20039;-71
2021/05/07 11:04:06;;;;;;;2.90;0.88;;;;;;;29.02;26.14;94515.56;4981124;28;20054;-72
2021/05/07 11:06:33;;;;;;;2.55;1.15;;;;;;;28.99;25.90;94515.97;4987829;28;20429;-72
2021/05/07 11:08:59;;;;;;;3.05;0.70;;;;;;;28.96;25.73;94506.81;4972662;28;20404;-71
2021/05/07 11:11:32;;;;;;;3.13;0.93;;;;;;;28.62;25.77;94466.66;4980643;28;20174;-71
2021/05/07 11:13:58;;;;;;;2.80;1.23;;;;;;;28.94;26.19;94481.91;4999808;28;20030;-71
2021/05/07 11:16:23;;;;;;;3.05;0.82;;;;;;;28.97;25.38;94486.28;4994826;28;20089;-71
2021/05/07 11:18:48;;;;;;;2.83;0.90;;;;;;;28.96;25.60;94484.81;4986789;28;20026;-71
2021/05/07 11:21:14;;;;;;;2.65;1.02;;;;;;;28.97;25.41;94464.28;4982064;28;20031;-71
2021/05/07 11:23:40;;;;;;;2.22;0.80;;;;;;;29.02;25.79;94477.06;4975013;28;20042;-69
2021/05/07 11:26:06;;;;;;;2.17;1.00;;;;;;;29.10;25.28;94464.00;4986194;28;20031;-71
2021/05/07 11:28:41;;;;;;;2.40;0.93;;;;;;;29.11;25.55;94462.72;4976461;28;20034;-71
2021/05/07 11:31:07;;;;;;;3.97;1.13;;;;;;;29.14;25.66;94472.59;4984286;28;20034;-72